sensor_id;sensor_type;location;lat;lon;timestamp;P1;durP1;ratioP1;P2;durP2;ratioP2
9720;SDS011;4899;42.644;23.366;2022-07-10T00:00:44;15.43;;;13.37;;
9720;SDS011;4899;42.644;23.366;2022-07-10T00:03:11;14.47;;;13.07;;
9720;SDS011;4899;42.644;23.366;2022-07-10T00:05:38;12.03;;;11.03;;
9720;SDS011;4899;42.644;23.366;2022-07-10T00:08:05;13.60;;;12.40;;
9720;SDS011;4899;42.644;23.366;2022-07-10T00:10:32;13.60;;;12.27;;
9720;SDS011;4899;42.644;23.366;2022-07-10T00:13:01;13.47;;;12.17;;
9720;SDS011;4899;42.644;23.366;2022-07-10T00:15:28;15.37;;;12.10;;
9720;SDS011;4899;42.644;23.366;2022-07-10T00:17:57;15.83;;;12.53;;
9720;SDS011;4899;42.644;23.366;2022-07-10T00:20:23;13.87;;;12.47;;
9720;SDS011;4899;42.644;23.366;2022-07-10T00:22:50;13.93;;;12.70;;
9720;SDS011;4899;42.644;23.366;2022-07-10T00:25:17;14.47;;;12.97;;
9720;SDS011;4899;42.644;23.366;2022-07-10T00:27:44;14.00;;;12.67;;
9720;SDS011;4899;42.644;23.366;2022-07-10T00:30:12;13.90;;;12.60;;
9720;SDS011;4899;42.644;23.366;2022-07-10T00:32:39;14.10;;;12.50;;
9720;SDS011;4899;42.644;23.366;2022-07-10T00:35:06;15.17;;;13.70;;
9720;SDS011;4899;42.644;23.366;2022-07-10T00:37:34;14.97;;;13.47;;
9720;SDS011;4899;42.644;23.366;2022-07-10T00:40:01;16.87;;;13.13;;
9720;SDS011;4899;42.644;23.366;2022-07-10T00:42:30;15.67;;;14.27;;
9720;SDS011;4899;42.644;23.366;2022-07-10T00:44:57;15.03;;;13.50;;
9720;SDS011;4899;42.644;23.366;2022-07-10T00:47:26;14.30;;;12.90;;
9720;SDS011;4899;42.644;23.366;2022-07-10T00:49:52;14.90;;;13.50;;
9720;SDS011;4899;42.644;23.366;2022-07-10T00:52:19;15.23;;;13.83;;
9720;SDS011;4899;42.644;23.366;2022-07-10T00:54:47;14.43;;;13.13;;
9720;SDS011;4899;42.644;23.366;2022-07-10T00:57:16;14.00;;;12.80;;
9720;SDS011;4899;42.644;23.366;2022-07-10T00:59:43;15.57;;;14.17;;
9720;SDS011;4899;42.644;23.366;2022-07-10T01:02:11;15.87;;;13.77;;
9720;SDS011;4899;42.644;23.366;2022-07-10T01:04:40;15.10;;;13.70;;
9720;SDS011;4899;42.644;23.366;2022-07-10T01:07:07;14.10;;;12.80;;
9720;SDS011;4899;42.644;23.366;2022-07-10T01:09:34;14.03;;;12.50;;
9720;SDS011;4899;42.644;23.366;2022-07-10T01:12:01;13.80;;;12.60;;
9720;SDS011;4899;42.644;23.366;2022-07-10T01:14:29;13.50;;;12.20;;
9720;SDS011;4899;42.644;23.366;2022-07-10T01:16:57;13.73;;;12.53;;
9720;SDS011;4899;42.644;23.366;2022-07-10T01:19:24;14.47;;;13.10;;
9720;SDS011;4899;42.644;23.366;2022-07-10T01:21:52;15.30;;;13.17;;
9720;SDS011;4899;42.644;23.366;2022-07-10T01:24:19;13.77;;;12.47;;
9720;SDS011;4899;42.644;23.366;2022-07-10T01:26:46;13.33;;;12.13;;
9720;SDS011;4899;42.644;23.366;2022-07-10T01:29:13;12.97;;;11.80;;
9720;SDS011;4899;42.644;23.366;2022-07-10T01:31:40;13.23;;;11.97;;
9720;SDS011;4899;42.644;23.366;2022-07-10T01:34:08;13.57;;;12.27;;
9720;SDS011;4899;42.644;23.366;2022-07-10T01:36:35;12.97;;;11.77;;
9720;SDS011;4899;42.644;23.366;2022-07-10T01:39:05;12.73;;;11.60;;
9720;SDS011;4899;42.644;23.366;2022-07-10T01:41:33;12.23;;;11.13;;
9720;SDS011;4899;42.644;23.366;2022-07-10T01:44:00;13.00;;;11.83;;
9720;SDS011;4899;42.644;23.366;2022-07-10T01:46:27;12.20;;;11.07;;
9720;SDS011;4899;42.644;23.366;2022-07-10T01:48:54;15.50;;;11.37;;
9720;SDS011;4899;42.644;23.366;2022-07-10T01:51:21;13.60;;;12.33;;
9720;SDS011;4899;42.644;23.366;2022-07-10T01:53:48;14.80;;;12.43;;
9720;SDS011;4899;42.644;23.366;2022-07-10T01:56:16;12.93;;;11.77;;
9720;SDS011;4899;42.644;23.366;2022-07-10T01:58:43;11.73;;;10.57;;
9720;SDS011;4899;42.644;23.366;2022-07-10T02:01:10;12.23;;;10.90;;
9720;SDS011;4899;42.644;23.366;2022-07-10T02:03:38;12.77;;;10.90;;
9720;SDS011;4899;42.644;23.366;2022-07-10T02:06:23;11.40;;;10.30;;
9720;SDS011;4899;42.644;23.366;2022-07-10T02:08:50;12.07;;;9.97;;
9720;SDS011;4899;42.644;23.366;2022-07-10T02:11:18;12.27;;;11.27;;
9720;SDS011;4899;42.644;23.366;2022-07-10T02:13:45;12.27;;;11.07;;
9720;SDS011;4899;42.644;23.366;2022-07-10T02:16:12;13.07;;;11.37;;
9720;SDS011;4899;42.644;23.366;2022-07-10T02:18:39;11.27;;;10.07;;
9720;SDS011;4899;42.644;23.366;2022-07-10T02:21:06;13.23;;;12.00;;
9720;SDS011;4899;42.644;23.366;2022-07-10T02:23:33;15.83;;;11.80;;
9720;SDS011;4899;42.644;23.366;2022-07-10T02:26:00;11.90;;;10.80;;
9720;SDS011;4899;42.644;23.366;2022-07-10T02:28:28;12.93;;;11.73;;
9720;SDS011;4899;42.644;23.366;2022-07-10T02:30:55;11.60;;;10.20;;
9720;SDS011;4899;42.644;23.366;2022-07-10T02:33:22;12.57;;;10.93;;
9720;SDS011;4899;42.644;23.366;2022-07-10T02:35:49;12.97;;;11.47;;
9720;SDS011;4899;42.644;23.366;2022-07-10T02:38:16;15.33;;;11.43;;
9720;SDS011;4899;42.644;23.366;2022-07-10T02:40:43;13.00;;;11.67;;
9720;SDS011;4899;42.644;23.366;2022-07-10T02:43:10;12.33;;;11.13;;
9720;SDS011;4899;42.644;23.366;2022-07-10T02:45:38;13.37;;;11.87;;
9720;SDS011;4899;42.644;23.366;2022-07-10T02:48:05;12.83;;;11.70;;
9720;SDS011;4899;42.644;23.366;2022-07-10T02:50:32;12.87;;;11.63;;
9720;SDS011;4899;42.644;23.366;2022-07-10T02:52:59;14.03;;;12.30;;
9720;SDS011;4899;42.644;23.366;2022-07-10T02:55:26;13.70;;;12.30;;
9720;SDS011;4899;42.644;23.366;2022-07-10T02:57:53;13.60;;;12.03;;
9720;SDS011;4899;42.644;23.366;2022-07-10T03:00:20;13.07;;;11.87;;
9720;SDS011;4899;42.644;23.366;2022-07-10T03:02:48;12.13;;;11.03;;
9720;SDS011;4899;42.644;23.366;2022-07-10T03:05:15;11.33;;;10.33;;
9720;SDS011;4899;42.644;23.366;2022-07-10T03:07:42;9.37;;;8.17;;
9720;SDS011;4899;42.644;23.366;2022-07-10T03:10:09;11.63;;;10.53;;
9720;SDS011;4899;42.644;23.366;2022-07-10T03:12:36;11.53;;;10.53;;
9720;SDS011;4899;42.644;23.366;2022-07-10T03:15:03;10.63;;;9.70;;
9720;SDS011;4899;42.644;23.366;2022-07-10T03:17:31;10.20;;;9.10;;
9720;SDS011;4899;42.644;23.366;2022-07-10T03:19:59;8.70;;;7.80;;
9720;SDS011;4899;42.644;23.366;2022-07-10T03:22:26;11.33;;;10.23;;
9720;SDS011;4899;42.644;23.366;2022-07-10T03:24:55;10.57;;;9.57;;
9720;SDS011;4899;42.644;23.366;2022-07-10T03:27:22;14.47;;;10.40;;
9720;SDS011;4899;42.644;23.366;2022-07-10T03:29:52;13.20;;;10.20;;
9720;SDS011;4899;42.644;23.366;2022-07-10T03:32:19;11.53;;;10.37;;
9720;SDS011;4899;42.644;23.366;2022-07-10T03:34:46;11.60;;;9.87;;
9720;SDS011;4899;42.644;23.366;2022-07-10T03:37:18;11.97;;;10.67;;
9720;SDS011;4899;42.644;23.366;2022-07-10T03:39:45;12.30;;;10.83;;
9720;SDS011;4899;42.644;23.366;2022-07-10T03:42:12;11.40;;;10.40;;
9720;SDS011;4899;42.644;23.366;2022-07-10T03:44:39;12.40;;;10.73;;
9720;SDS011;4899;42.644;23.366;2022-07-10T03:47:06;11.20;;;10.10;;
9720;SDS011;4899;42.644;23.366;2022-07-10T03:49:33;12.13;;;11.13;;
9720;SDS011;4899;42.644;23.366;2022-07-10T03:52:00;11.67;;;10.30;;
9720;SDS011;4899;42.644;23.366;2022-07-10T03:54:29;15.83;;;11.40;;
9720;SDS011;4899;42.644;23.366;2022-07-10T03:56:56;13.40;;;11.40;;
9720;SDS011;4899;42.644;23.366;2022-07-10T03:59:40;9.00;;;8.20;;
9720;SDS011;4899;42.644;23.366;2022-07-10T04:02:07;11.13;;;10.00;;
9720;SDS011;4899;42.644;23.366;2022-07-10T04:04:34;10.23;;;9.40;;
9720;SDS011;4899;42.644;23.366;2022-07-10T04:07:01;11.20;;;10.23;;
9720;SDS011;4899;42.644;23.366;2022-07-10T04:09:30;10.90;;;9.87;;
9720;SDS011;4899;42.644;23.366;2022-07-10T04:11:57;10.53;;;9.53;;
9720;SDS011;4899;42.644;23.366;2022-07-10T04:14:24;12.50;;;10.63;;
9720;SDS011;4899;42.644;23.366;2022-07-10T04:16:51;11.47;;;10.30;;
9720;SDS011;4899;42.644;23.366;2022-07-10T04:19:18;11.83;;;10.43;;
9720;SDS011;4899;42.644;23.366;2022-07-10T04:21:46;10.27;;;9.20;;
9720;SDS011;4899;42.644;23.366;2022-07-10T04:24:13;10.90;;;9.80;;
9720;SDS011;4899;42.644;23.366;2022-07-10T04:26:41;10.33;;;9.37;;
9720;SDS011;4899;42.644;23.366;2022-07-10T04:29:08;10.43;;;9.37;;
9720;SDS011;4899;42.644;23.366;2022-07-10T04:31:35;8.57;;;7.67;;
9720;SDS011;4899;42.644;23.366;2022-07-10T04:34:02;10.37;;;9.37;;
9720;SDS011;4899;42.644;23.366;2022-07-10T04:36:29;10.90;;;9.53;;
9720;SDS011;4899;42.644;23.366;2022-07-10T04:38:56;10.53;;;8.47;;
9720;SDS011;4899;42.644;23.366;2022-07-10T04:41:23;9.70;;;8.90;;
9720;SDS011;4899;42.644;23.366;2022-07-10T04:43:51;10.37;;;9.37;;
9720;SDS011;4899;42.644;23.366;2022-07-10T04:46:18;9.83;;;8.90;;
9720;SDS011;4899;42.644;23.366;2022-07-10T04:48:45;10.37;;;8.40;;
9720;SDS011;4899;42.644;23.366;2022-07-10T04:51:12;9.53;;;8.63;;
9720;SDS011;4899;42.644;23.366;2022-07-10T04:53:39;10.07;;;8.60;;
9720;SDS011;4899;42.644;23.366;2022-07-10T04:56:05;9.00;;;8.30;;
9720;SDS011;4899;42.644;23.366;2022-07-10T04:58:33;9.43;;;8.13;;
9720;SDS011;4899;42.644;23.366;2022-07-10T05:01:01;10.07;;;8.67;;
9720;SDS011;4899;42.644;23.366;2022-07-10T05:03:28;9.43;;;8.33;;
9720;SDS011;4899;42.644;23.366;2022-07-10T05:05:55;8.83;;;7.33;;
9720;SDS011;4899;42.644;23.366;2022-07-10T05:08:22;8.73;;;7.80;;
9720;SDS011;4899;42.644;23.366;2022-07-10T05:10:49;8.00;;;7.37;;
9720;SDS011;4899;42.644;23.366;2022-07-10T05:13:16;7.30;;;6.60;;
9720;SDS011;4899;42.644;23.366;2022-07-10T05:15:45;5.87;;;5.27;;
9720;SDS011;4899;42.644;23.366;2022-07-10T05:18:14;8.10;;;5.87;;
9720;SDS011;4899;42.644;23.366;2022-07-10T05:20:40;8.70;;;7.67;;
9720;SDS011;4899;42.644;23.366;2022-07-10T05:23:08;7.67;;;6.97;;
9720;SDS011;4899;42.644;23.366;2022-07-10T05:25:36;8.33;;;7.53;;
9720;SDS011;4899;42.644;23.366;2022-07-10T05:28:04;7.10;;;6.50;;
9720;SDS011;4899;42.644;23.366;2022-07-10T05:30:31;8.67;;;7.77;;
9720;SDS011;4899;42.644;23.366;2022-07-10T05:32:58;9.20;;;7.37;;
9720;SDS011;4899;42.644;23.366;2022-07-10T05:35:26;7.90;;;7.27;;
9720;SDS011;4899;42.644;23.366;2022-07-10T05:37:53;7.97;;;6.83;;
9720;SDS011;4899;42.644;23.366;2022-07-10T05:40:20;7.80;;;7.10;;
9720;SDS011;4899;42.644;23.366;2022-07-10T05:42:47;8.30;;;7.50;;
9720;SDS011;4899;42.644;23.366;2022-07-10T05:45:14;7.87;;;6.23;;
9720;SDS011;4899;42.644;23.366;2022-07-10T05:47:40;7.07;;;6.47;;
9720;SDS011;4899;42.644;23.366;2022-07-10T05:50:07;7.67;;;6.87;;
9720;SDS011;4899;42.644;23.366;2022-07-10T05:52:36;7.50;;;6.80;;
9720;SDS011;4899;42.644;23.366;2022-07-10T05:55:03;6.90;;;6.30;;
9720;SDS011;4899;42.644;23.366;2022-07-10T05:57:31;8.90;;;7.23;;
9720;SDS011;4899;42.644;23.366;2022-07-10T05:59:58;7.17;;;6.47;;
9720;SDS011;4899;42.644;23.366;2022-07-10T06:02:25;7.60;;;7.00;;
9720;SDS011;4899;42.644;23.366;2022-07-10T06:04:52;6.07;;;5.47;;
9720;SDS011;4899;42.644;23.366;2022-07-10T06:07:19;6.90;;;6.33;;
9720;SDS011;4899;42.644;23.366;2022-07-10T06:09:47;6.90;;;6.23;;
9720;SDS011;4899;42.644;23.366;2022-07-10T06:12:14;6.33;;;5.73;;
9720;SDS011;4899;42.644;23.366;2022-07-10T06:14:41;6.30;;;5.90;;
9720;SDS011;4899;42.644;23.366;2022-07-10T06:17:08;5.83;;;5.30;;
9720;SDS011;4899;42.644;23.366;2022-07-10T06:19:35;6.70;;;5.53;;
9720;SDS011;4899;42.644;23.366;2022-07-10T06:22:02;6.33;;;5.73;;
9720;SDS011;4899;42.644;23.366;2022-07-10T06:24:49;5.40;;;4.90;;
9720;SDS011;4899;42.644;23.366;2022-07-10T06:27:17;6.03;;;4.67;;
9720;SDS011;4899;42.644;23.366;2022-07-10T06:29:44;6.13;;;5.53;;
9720;SDS011;4899;42.644;23.366;2022-07-10T06:32:11;6.37;;;5.47;;
9720;SDS011;4899;42.644;23.366;2022-07-10T06:34:38;7.53;;;5.97;;
9720;SDS011;4899;42.644;23.366;2022-07-10T06:37:05;7.60;;;6.00;;
9720;SDS011;4899;42.644;23.366;2022-07-10T06:39:32;5.73;;;5.07;;
9720;SDS011;4899;42.644;23.366;2022-07-10T06:42:02;6.13;;;5.53;;
9720;SDS011;4899;42.644;23.366;2022-07-10T06:44:29;5.80;;;5.20;;
9720;SDS011;4899;42.644;23.366;2022-07-10T06:46:56;5.73;;;5.17;;
9720;SDS011;4899;42.644;23.366;2022-07-10T06:49:41;5.90;;;5.40;;
9720;SDS011;4899;42.644;23.366;2022-07-10T06:52:08;6.23;;;4.67;;
9720;SDS011;4899;42.644;23.366;2022-07-10T06:54:35;5.37;;;4.93;;
9720;SDS011;4899;42.644;23.366;2022-07-10T06:57:04;7.67;;;4.53;;
9720;SDS011;4899;42.644;23.366;2022-07-10T06:59:31;5.13;;;4.73;;
9720;SDS011;4899;42.644;23.366;2022-07-10T07:01:58;8.40;;;5.50;;
9720;SDS011;4899;42.644;23.366;2022-07-10T07:04:25;7.40;;;4.73;;
9720;SDS011;4899;42.644;23.366;2022-07-10T07:06:52;5.43;;;4.73;;
9720;SDS011;4899;42.644;23.366;2022-07-10T07:09:19;6.00;;;4.83;;
9720;SDS011;4899;42.644;23.366;2022-07-10T07:11:46;5.30;;;4.77;;
9720;SDS011;4899;42.644;23.366;2022-07-10T07:14:14;5.27;;;4.03;;
9720;SDS011;4899;42.644;23.366;2022-07-10T07:16:41;4.80;;;4.43;;
9720;SDS011;4899;42.644;23.366;2022-07-10T07:19:10;4.90;;;4.40;;
9720;SDS011;4899;42.644;23.366;2022-07-10T07:21:42;5.43;;;4.97;;
9720;SDS011;4899;42.644;23.366;2022-07-10T07:24:27;5.20;;;4.53;;
9720;SDS011;4899;42.644;23.366;2022-07-10T07:26:54;5.03;;;4.63;;
9720;SDS011;4899;42.644;23.366;2022-07-10T07:29:22;5.23;;;4.70;;
9720;SDS011;4899;42.644;23.366;2022-07-10T07:31:49;5.40;;;4.03;;
9720;SDS011;4899;42.644;23.366;2022-07-10T07:34:16;4.60;;;4.20;;
9720;SDS011;4899;42.644;23.366;2022-07-10T07:36:42;6.03;;;4.80;;
9720;SDS011;4899;42.644;23.366;2022-07-10T07:39:09;6.80;;;4.53;;
9720;SDS011;4899;42.644;23.366;2022-07-10T07:41:37;5.77;;;4.80;;
9720;SDS011;4899;42.644;23.366;2022-07-10T07:44:06;4.43;;;4.10;;
9720;SDS011;4899;42.644;23.366;2022-07-10T07:46:34;5.17;;;4.47;;
9720;SDS011;4899;42.644;23.366;2022-07-10T07:49:01;4.93;;;4.40;;
9720;SDS011;4899;42.644;23.366;2022-07-10T07:51:28;4.90;;;4.50;;
9720;SDS011;4899;42.644;23.366;2022-07-10T07:53:55;4.33;;;3.93;;
9720;SDS011;4899;42.644;23.366;2022-07-10T07:56:22;5.23;;;3.90;;
9720;SDS011;4899;42.644;23.366;2022-07-10T07:58:49;4.37;;;3.97;;
9720;SDS011;4899;42.644;23.366;2022-07-10T08:01:15;7.37;;;4.13;;
9720;SDS011;4899;42.644;23.366;2022-07-10T08:03:46;4.63;;;4.23;;
9720;SDS011;4899;42.644;23.366;2022-07-10T08:06:13;5.10;;;4.63;;
9720;SDS011;4899;42.644;23.366;2022-07-10T08:08:39;4.07;;;3.77;;
9720;SDS011;4899;42.644;23.366;2022-07-10T08:11:06;3.73;;;3.43;;
9720;SDS011;4899;42.644;23.366;2022-07-10T08:13:33;4.80;;;3.90;;
9720;SDS011;4899;42.644;23.366;2022-07-10T08:16:00;6.50;;;3.80;;
9720;SDS011;4899;42.644;23.366;2022-07-10T08:18:27;5.00;;;4.30;;
9720;SDS011;4899;42.644;23.366;2022-07-10T08:20:55;4.13;;;3.50;;
9720;SDS011;4899;42.644;23.366;2022-07-10T08:23:22;4.07;;;3.77;;
9720;SDS011;4899;42.644;23.366;2022-07-10T08:25:49;3.87;;;3.57;;
9720;SDS011;4899;42.644;23.366;2022-07-10T08:28:15;4.03;;;3.47;;
9720;SDS011;4899;42.644;23.366;2022-07-10T08:30:42;4.07;;;3.63;;
9720;SDS011;4899;42.644;23.366;2022-07-10T08:33:10;4.40;;;3.70;;
9720;SDS011;4899;42.644;23.366;2022-07-10T08:35:37;3.40;;;3.20;;
9720;SDS011;4899;42.644;23.366;2022-07-10T08:38:07;4.80;;;4.07;;
9720;SDS011;4899;42.644;23.366;2022-07-10T08:40:35;6.83;;;3.77;;
9720;SDS011;4899;42.644;23.366;2022-07-10T08:43:02;6.80;;;4.00;;
9720;SDS011;4899;42.644;23.366;2022-07-10T08:45:30;4.63;;;3.57;;
9720;SDS011;4899;42.644;23.366;2022-07-10T08:47:59;3.20;;;3.00;;
9720;SDS011;4899;42.644;23.366;2022-07-10T08:50:29;3.83;;;3.50;;
9720;SDS011;4899;42.644;23.366;2022-07-10T08:53:00;3.77;;;3.47;;
9720;SDS011;4899;42.644;23.366;2022-07-10T08:55:32;3.63;;;3.20;;
9720;SDS011;4899;42.644;23.366;2022-07-10T08:57:59;7.43;;;3.63;;
9720;SDS011;4899;42.644;23.366;2022-07-10T09:00:27;4.93;;;3.00;;
9720;SDS011;4899;42.644;23.366;2022-07-10T09:02:54;3.97;;;3.67;;
9720;SDS011;4899;42.644;23.366;2022-07-10T09:05:21;3.60;;;3.30;;
9720;SDS011;4899;42.644;23.366;2022-07-10T09:07:49;3.93;;;3.40;;
9720;SDS011;4899;42.644;23.366;2022-07-10T09:10:17;3.27;;;2.97;;
9720;SDS011;4899;42.644;23.366;2022-07-10T09:12:52;3.37;;;3.17;;
9720;SDS011;4899;42.644;23.366;2022-07-10T09:15:21;4.37;;;3.43;;
9720;SDS011;4899;42.644;23.366;2022-07-10T09:17:49;3.97;;;3.30;;
9720;SDS011;4899;42.644;23.366;2022-07-10T09:20:24;3.43;;;3.10;;
9720;SDS011;4899;42.644;23.366;2022-07-10T09:22:52;3.37;;;3.17;;
9720;SDS011;4899;42.644;23.366;2022-07-10T09:25:19;4.30;;;3.50;;
9720;SDS011;4899;42.644;23.366;2022-07-10T09:27:53;3.50;;;3.10;;
9720;SDS011;4899;42.644;23.366;2022-07-10T09:30:33;3.70;;;3.40;;
9720;SDS011;4899;42.644;23.366;2022-07-10T09:33:14;4.47;;;3.67;;
9720;SDS011;4899;42.644;23.366;2022-07-10T09:35:56;3.30;;;3.00;;
9720;SDS011;4899;42.644;23.366;2022-07-10T09:38:47;3.90;;;3.60;;
9720;SDS011;4899;42.644;23.366;2022-07-10T09:41:20;3.87;;;3.40;;
9720;SDS011;4899;42.644;23.366;2022-07-10T09:43:50;3.07;;;2.80;;
9720;SDS011;4899;42.644;23.366;2022-07-10T09:46:18;5.53;;;3.87;;
9720;SDS011;4899;42.644;23.366;2022-07-10T09:48:46;3.20;;;2.90;;
9720;SDS011;4899;42.644;23.366;2022-07-10T09:51:13;3.60;;;2.90;;
9720;SDS011;4899;42.644;23.366;2022-07-10T09:53:40;4.60;;;2.87;;
9720;SDS011;4899;42.644;23.366;2022-07-10T09:56:08;3.23;;;3.03;;
9720;SDS011;4899;42.644;23.366;2022-07-10T09:58:36;3.20;;;2.93;;
9720;SDS011;4899;42.644;23.366;2022-07-10T10:01:06;3.80;;;3.30;;
9720;SDS011;4899;42.644;23.366;2022-07-10T10:03:34;4.60;;;3.20;;
9720;SDS011;4899;42.644;23.366;2022-07-10T10:08:48;3.43;;;3.03;;
9720;SDS011;4899;42.644;23.366;2022-07-10T10:11:21;3.07;;;2.87;;
9720;SDS011;4899;42.644;23.366;2022-07-10T10:13:52;3.07;;;2.80;;
9720;SDS011;4899;42.644;23.366;2022-07-10T10:16:20;4.67;;;2.80;;
9720;SDS011;4899;42.644;23.366;2022-07-10T10:18:48;3.17;;;2.87;;
9720;SDS011;4899;42.644;23.366;2022-07-10T10:21:34;4.40;;;3.13;;
9720;SDS011;4899;42.644;23.366;2022-07-10T10:24:02;3.53;;;2.67;;
9720;SDS011;4899;42.644;23.366;2022-07-10T10:26:29;3.17;;;2.97;;
9720;SDS011;4899;42.644;23.366;2022-07-10T10:28:56;3.00;;;2.50;;
9720;SDS011;4899;42.644;23.366;2022-07-10T10:31:26;2.90;;;2.53;;
9720;SDS011;4899;42.644;23.366;2022-07-10T10:33:54;4.37;;;2.73;;
9720;SDS011;4899;42.644;23.366;2022-07-10T10:39:11;2.77;;;2.40;;
9720;SDS011;4899;42.644;23.366;2022-07-10T10:41:39;2.77;;;2.57;;
9720;SDS011;4899;42.644;23.366;2022-07-10T10:44:27;3.43;;;2.43;;
9720;SDS011;4899;42.644;23.366;2022-07-10T10:47:05;4.13;;;2.80;;
9720;SDS011;4899;42.644;23.366;2022-07-10T10:49:48;2.53;;;2.30;;
9720;SDS011;4899;42.644;23.366;2022-07-10T10:52:19;3.60;;;2.40;;
9720;SDS011;4899;42.644;23.366;2022-07-10T10:55:00;5.67;;;2.60;;
9720;SDS011;4899;42.644;23.366;2022-07-10T10:57:40;9.33;;;2.77;;
9720;SDS011;4899;42.644;23.366;2022-07-10T11:00:30;3.40;;;2.63;;
9720;SDS011;4899;42.644;23.366;2022-07-10T11:03:13;3.20;;;2.90;;
9720;SDS011;4899;42.644;23.366;2022-07-10T11:05:43;7.83;;;2.53;;
9720;SDS011;4899;42.644;23.366;2022-07-10T11:08:10;2.90;;;2.30;;
9720;SDS011;4899;42.644;23.366;2022-07-10T11:10:39;2.83;;;2.50;;
9720;SDS011;4899;42.644;23.366;2022-07-10T11:13:07;5.70;;;3.33;;
9720;SDS011;4899;42.644;23.366;2022-07-10T11:15:35;3.80;;;2.60;;
9720;SDS011;4899;42.644;23.366;2022-07-10T11:18:04;4.40;;;2.47;;
9720;SDS011;4899;42.644;23.366;2022-07-10T11:20:35;2.73;;;2.20;;
9720;SDS011;4899;42.644;23.366;2022-07-10T11:23:15;2.60;;;2.40;;
9720;SDS011;4899;42.644;23.366;2022-07-10T11:25:54;4.07;;;2.67;;
9720;SDS011;4899;42.644;23.366;2022-07-10T11:28:35;2.20;;;2.10;;
9720;SDS011;4899;42.644;23.366;2022-07-10T11:31:12;3.00;;;2.63;;
9720;SDS011;4899;42.644;23.366;2022-07-10T11:33:39;3.37;;;2.17;;
9720;SDS011;4899;42.644;23.366;2022-07-10T11:36:13;2.77;;;2.27;;
9720;SDS011;4899;42.644;23.366;2022-07-10T11:38:42;2.83;;;2.50;;
9720;SDS011;4899;42.644;23.366;2022-07-10T11:41:13;2.13;;;1.97;;
9720;SDS011;4899;42.644;23.366;2022-07-10T11:43:48;3.00;;;2.23;;
9720;SDS011;4899;42.644;23.366;2022-07-10T11:46:15;4.63;;;2.40;;
9720;SDS011;4899;42.644;23.366;2022-07-10T11:48:43;2.50;;;2.33;;
9720;SDS011;4899;42.644;23.366;2022-07-10T11:51:20;3.20;;;3.00;;
9720;SDS011;4899;42.644;23.366;2022-07-10T11:53:54;2.70;;;2.27;;
9720;SDS011;4899;42.644;23.366;2022-07-10T11:56:22;2.40;;;2.20;;
9720;SDS011;4899;42.644;23.366;2022-07-10T11:58:53;2.40;;;2.20;;
9720;SDS011;4899;42.644;23.366;2022-07-10T12:01:23;2.23;;;2.13;;
9720;SDS011;4899;42.644;23.366;2022-07-10T12:03:57;5.30;;;2.60;;
9720;SDS011;4899;42.644;23.366;2022-07-10T12:06:27;2.30;;;2.10;;
9720;SDS011;4899;42.644;23.366;2022-07-10T12:08:55;4.87;;;2.33;;
9720;SDS011;4899;42.644;23.366;2022-07-10T12:11:27;2.90;;;2.03;;
9720;SDS011;4899;42.644;23.366;2022-07-10T12:13:54;2.60;;;2.17;;
9720;SDS011;4899;42.644;23.366;2022-07-10T12:16:35;4.70;;;2.10;;
9720;SDS011;4899;42.644;23.366;2022-07-10T12:19:03;3.73;;;2.30;;
9720;SDS011;4899;42.644;23.366;2022-07-10T12:21:32;2.20;;;2.00;;
9720;SDS011;4899;42.644;23.366;2022-07-10T12:23:59;3.43;;;2.10;;
9720;SDS011;4899;42.644;23.366;2022-07-10T12:26:30;2.70;;;2.50;;
9720;SDS011;4899;42.644;23.366;2022-07-10T12:28:58;4.03;;;2.40;;
9720;SDS011;4899;42.644;23.366;2022-07-10T12:31:26;1.93;;;1.80;;
9720;SDS011;4899;42.644;23.366;2022-07-10T12:33:54;2.50;;;2.20;;
9720;SDS011;4899;42.644;23.366;2022-07-10T12:36:26;2.00;;;1.90;;
9720;SDS011;4899;42.644;23.366;2022-07-10T12:39:10;3.47;;;1.87;;
9720;SDS011;4899;42.644;23.366;2022-07-10T12:44:31;2.07;;;1.87;;
9720;SDS011;4899;42.644;23.366;2022-07-10T12:47:09;2.13;;;2.00;;
9720;SDS011;4899;42.644;23.366;2022-07-10T12:49:47;2.43;;;2.10;;
9720;SDS011;4899;42.644;23.366;2022-07-10T12:52:23;2.43;;;1.80;;
9720;SDS011;4899;42.644;23.366;2022-07-10T12:55:11;1.83;;;1.70;;
9720;SDS011;4899;42.644;23.366;2022-07-10T12:57:49;2.10;;;1.90;;
9720;SDS011;4899;42.644;23.366;2022-07-10T13:00:17;1.50;;;1.40;;
9720;SDS011;4899;42.644;23.366;2022-07-10T13:02:45;3.27;;;1.50;;
9720;SDS011;4899;42.644;23.366;2022-07-10T13:05:24;1.87;;;1.63;;
9720;SDS011;4899;42.644;23.366;2022-07-10T13:08:03;1.93;;;1.50;;
9720;SDS011;4899;42.644;23.366;2022-07-10T13:10:32;2.60;;;1.60;;
9720;SDS011;4899;42.644;23.366;2022-07-10T13:12:59;1.90;;;1.80;;
9720;SDS011;4899;42.644;23.366;2022-07-10T13:15:25;2.50;;;1.40;;
9720;SDS011;4899;42.644;23.366;2022-07-10T13:17:54;1.43;;;1.30;;
9720;SDS011;4899;42.644;23.366;2022-07-10T13:20:21;1.50;;;1.40;;
9720;SDS011;4899;42.644;23.366;2022-07-10T13:22:48;2.27;;;1.00;;
9720;SDS011;4899;42.644;23.366;2022-07-10T13:25:16;1.30;;;1.20;;
9720;SDS011;4899;42.644;23.366;2022-07-10T13:27:43;1.23;;;1.13;;
9720;SDS011;4899;42.644;23.366;2022-07-10T13:30:10;3.30;;;1.10;;
9720;SDS011;4899;42.644;23.366;2022-07-10T13:32:37;1.30;;;1.20;;
9720;SDS011;4899;42.644;23.366;2022-07-10T13:35:04;1.87;;;0.80;;
9720;SDS011;4899;42.644;23.366;2022-07-10T13:37:31;2.97;;;1.20;;
9720;SDS011;4899;42.644;23.366;2022-07-10T13:39:58;1.70;;;1.10;;
9720;SDS011;4899;42.644;23.366;2022-07-10T13:42:26;1.57;;;1.33;;
9720;SDS011;4899;42.644;23.366;2022-07-10T13:44:53;2.63;;;1.27;;
9720;SDS011;4899;42.644;23.366;2022-07-10T13:47:20;0.93;;;0.93;;
9720;SDS011;4899;42.644;23.366;2022-07-10T13:49:47;1.50;;;0.97;;
9720;SDS011;4899;42.644;23.366;2022-07-10T13:52:14;7.13;;;1.40;;
9720;SDS011;4899;42.644;23.366;2022-07-10T13:54:41;3.47;;;1.60;;
9720;SDS011;4899;42.644;23.366;2022-07-10T13:57:08;1.03;;;1.00;;
9720;SDS011;4899;42.644;23.366;2022-07-10T13:59:36;4.27;;;1.57;;
9720;SDS011;4899;42.644;23.366;2022-07-10T14:02:03;1.25;;;1.15;;
9720;SDS011;4899;42.644;23.366;2022-07-10T14:04:30;2.70;;;1.57;;
9720;SDS011;4899;42.644;23.366;2022-07-10T14:06:57;1.77;;;1.20;;
9720;SDS011;4899;42.644;23.366;2022-07-10T14:09:24;1.33;;;1.20;;
9720;SDS011;4899;42.644;23.366;2022-07-10T14:11:52;3.13;;;1.73;;
9720;SDS011;4899;42.644;23.366;2022-07-10T14:14:19;0.90;;;0.90;;
9720;SDS011;4899;42.644;23.366;2022-07-10T14:16:48;2.00;;;1.40;;
9720;SDS011;4899;42.644;23.366;2022-07-10T14:19:16;2.60;;;1.30;;
9720;SDS011;4899;42.644;23.366;2022-07-10T14:21:43;1.30;;;1.20;;
9720;SDS011;4899;42.644;23.366;2022-07-10T14:24:10;3.13;;;1.13;;
9720;SDS011;4899;42.644;23.366;2022-07-10T14:26:38;1.63;;;1.50;;
9720;SDS011;4899;42.644;23.366;2022-07-10T14:29:04;1.10;;;1.10;;
9720;SDS011;4899;42.644;23.366;2022-07-10T14:31:32;2.43;;;1.20;;
9720;SDS011;4899;42.644;23.366;2022-07-10T14:34:01;1.33;;;1.23;;
9720;SDS011;4899;42.644;23.366;2022-07-10T14:36:29;1.40;;;1.30;;
9720;SDS011;4899;42.644;23.366;2022-07-10T14:38:56;1.47;;;1.20;;
9720;SDS011;4899;42.644;23.366;2022-07-10T14:41:23;1.00;;;1.00;;
9720;SDS011;4899;42.644;23.366;2022-07-10T14:43:50;1.37;;;1.10;;
9720;SDS011;4899;42.644;23.366;2022-07-10T14:46:17;1.40;;;1.10;;
9720;SDS011;4899;42.644;23.366;2022-07-10T14:48:44;2.47;;;1.00;;
9720;SDS011;4899;42.644;23.366;2022-07-10T14:51:12;1.30;;;1.20;;
9720;SDS011;4899;42.644;23.366;2022-07-10T14:53:40;1.10;;;1.10;;
9720;SDS011;4899;42.644;23.366;2022-07-10T14:56:08;2.03;;;1.20;;
9720;SDS011;4899;42.644;23.366;2022-07-10T14:58:35;1.73;;;1.10;;
9720;SDS011;4899;42.644;23.366;2022-07-10T15:01:03;1.10;;;1.00;;
9720;SDS011;4899;42.644;23.366;2022-07-10T15:03:29;1.53;;;1.13;;
9720;SDS011;4899;42.644;23.366;2022-07-10T15:05:56;1.53;;;1.23;;
9720;SDS011;4899;42.644;23.366;2022-07-10T15:08:24;1.00;;;1.00;;
9720;SDS011;4899;42.644;23.366;2022-07-10T15:10:52;1.20;;;1.10;;